Time;durP1;ratioP1;P1;durP2;ratioP2;P2;SDS_P1;SDS_P2;PMS_P1;PMS_P2;Temp;Humidity;BMP_temperature;BMP_pressure;BME280_temperature;BME280_humidity;BME280_pressure;Samples;Min_cycle;Max_cycle;Signal;HPM_P1;HPM_P2
2023/05/21 00:01:15;;;;;;;2.03;1.83;;;15.90;95.10;;;;;;5082304;28;20085;-43
2023/05/21 00:03:44;;;;;;;1.80;1.70;;;15.90;95.20;;;;;;5080886;28;20089;-42
2023/05/21 00:06:12;;;;;;;4.13;1.52;;;16.00;95.20;;;;;;5082782;28;20039;-42
2023/05/21 00:08:38;;;;;;;2.13;1.90;;;16.00;95.30;;;;;;5081171;28;20032;-43
2023/05/21 00:11:04;;;;;;;1.90;1.75;;;16.00;95.30;;;;;;5080231;28;20387;-42
2023/05/21 00:13:29;;;;;;;2.00;1.80;;;16.00;95.40;;;;;;5071755;28;20016;-42
2023/05/21 00:15:55;;;;;;;2.58;1.90;;;16.10;95.40;;;;;;5081477;28;20027;-43
2023/05/21 00:18:21;;;;;;;1.88;1.70;;;16.10;95.40;;;;;;5079665;28;20024;-42
2023/05/21 00:20:49;;;;;;;1.70;1.60;;;16.10;95.70;;;;;;5081325;28;20032;-42
2023/05/21 00:23:17;;;;;;;1.70;1.60;;;16.10;95.50;;;;;;5082048;28;20851;-43
2023/05/21 00:25:44;;;;;;;2.85;1.70;;;16.10;95.60;;;;;;5071663;28;20038;-43
2023/05/21 00:28:10;;;;;;;2.28;1.80;;;16.10;95.70;;;;;;5082108;28;20094;-42
2023/05/21 00:30:35;;;;;;;2.45;1.60;;;16.20;95.70;;;;;;5074740;28;20042;-45
2023/05/21 00:33:01;;;;;;;2.30;2.10;;;16.10;95.80;;;;;;5080832;28;20046;-45
2023/05/21 00:35:28;;;;;;;2.05;1.60;;;16.10;95.80;;;;;;5078551;28;20039;-44
2023/05/21 00:37:53;;;;;;;4.53;2.85;;;16.10;95.90;;;;;;5081352;28;20028;-43
2023/05/21 00:40:19;;;;;;;3.78;2.40;;;16.10;96.10;;;;;;5081208;28;20137;-42
2023/05/21 00:42:46;;;;;;;2.42;1.90;;;16.10;96.10;;;;;;5067028;28;20063;-43
2023/05/21 00:45:13;;;;;;;1.95;1.80;;;16.20;96.20;;;;;;5077535;28;20086;-43
2023/05/21 00:47:40;;;;;;;2.55;2.35;;;16.10;96.30;;;;;;5082188;28;20016;-42
2023/05/21 00:50:07;;;;;;;6.57;2.15;;;16.10;96.40;;;;;;5081580;28;20460;-43
2023/05/21 00:52:40;;;;;;;3.35;2.17;;;16.10;96.40;;;;;;5080917;28;20077;-42
2023/05/21 00:55:06;;;;;;;2.50;2.13;;;16.10;96.50;;;;;;5074901;28;20056;-44
2023/05/21 00:57:36;;;;;;;3.40;2.15;;;16.10;96.70;;;;;;5079801;28;20782;-42
2023/05/21 01:00:03;;;;;;;2.70;2.35;;;16.10;96.70;;;;;;5081648;28;20759;-42
2023/05/21 01:02:33;;;;;;;2.42;2.10;;;16.10;96.80;;;;;;5081135;28;20055;-43
2023/05/21 01:04:59;;;;;;;3.45;2.05;;;16.00;96.90;;;;;;5080201;28;20110;-42
2023/05/21 01:07:25;;;;;;;2.30;2.10;;;16.00;97.00;;;;;;5081670;28;20115;-41
2023/05/21 01:09:51;;;;;;;2.22;2.00;;;16.00;97.10;;;;;;5082403;28;20024;-42
2023/05/21 01:12:17;;;;;;;2.08;1.88;;;16.00;97.20;;;;;;5080203;28;20039;-43
2023/05/21 01:14:43;;;;;;;3.10;2.22;;;16.00;97.20;;;;;;5065963;28;20024;-42
2023/05/21 01:17:09;;;;;;;2.67;2.45;;;16.00;97.30;;;;;;5078451;28;20032;-42
2023/05/21 01:19:35;;;;;;;3.08;2.35;;;16.00;97.50;;;;;;5075954;28;20027;-42
2023/05/21 01:22:06;;;;;;;2.58;2.38;;;16.00;97.60;;;;;;5083385;28;20027;-42
2023/05/21 01:24:31;;;;;;;2.10;1.90;;;16.00;97.70;;;;;;5084934;28;20141;-42
2023/05/21 01:26:59;;;;;;;4.25;2.30;;;15.90;97.60;;;;;;5084755;28;20560;-43
2023/05/21 01:29:24;;;;;;;3.83;2.80;;;16.00;97.70;;;;;;5065654;28;20025;-42
2023/05/21 01:32:14;;;;;;;2.35;2.03;;;16.00;97.90;;;;;;5080601;28;20035;-42
2023/05/21 01:35:03;;;;;;;2.47;2.28;;;15.90;97.90;;;;;;5065478;28;20138;-42
2023/05/21 01:37:36;;;;;;;2.65;2.45;;;15.90;98.10;;;;;;5083653;28;20081;-42
2023/05/21 01:40:27;;;;;;;4.13;2.28;;;16.00;98.30;;;;;;5068501;28;20031;-42
2023/05/21 01:42:52;;;;;;;2.42;2.22;;;15.90;98.20;;;;;;5080577;28;20027;-43
2023/05/21 01:45:20;;;;;;;2.60;2.40;;;15.90;98.30;;;;;;5083588;28;20028;-43
2023/05/21 01:47:48;;;;;;;3.00;2.70;;;15.90;98.40;;;;;;5080795;28;20557;-42
2023/05/21 01:50:14;;;;;;;3.00;2.78;;;15.90;98.50;;;;;;5063849;28;20043;-42
2023/05/21 01:52:50;;;;;;;3.70;2.80;;;15.90;98.80;;;;;;5080499;28;20440;-43
2023/05/21 01:55:23;;;;;;;2.83;2.42;;;15.80;98.80;;;;;;5084615;28;20040;-43
2023/05/21 01:57:52;;;;;;;4.15;2.70;;;15.80;98.80;;;;;;5083503;28;20059;-43
2023/05/21 02:00:21;;;;;;;3.83;2.90;;;15.90;99.00;;;;;;5084320;28;20052;-43
2023/05/21 02:02:47;;;;;;;2.60;2.40;;;15.90;99.00;;;;;;5080931;28;20038;-42
2023/05/21 02:05:13;;;;;;;4.00;2.50;;;15.80;99.10;;;;;;5084760;28;20028;-42
2023/05/21 02:07:39;;;;;;;3.53;3.03;;;15.80;99.10;;;;;;5083204;28;20547;-43
2023/05/21 02:10:06;;;;;;;2.55;2.35;;;15.80;99.30;;;;;;5084387;28;20036;-42
2023/05/21 02:12:32;;;;;;;3.78;2.40;;;15.80;99.40;;;;;;5083498;28;20024;-43
2023/05/21 02:14:58;;;;;;;2.72;2.50;;;15.80;99.40;;;;;;5083806;28;20038;-43
2023/05/21 02:17:24;;;;;;;4.10;3.00;;;15.80;99.50;;;;;;5084211;28;20379;-43
2023/05/21 02:19:51;;;;;;;3.53;3.13;;;15.80;99.60;;;;;;5085180;28;20790;-43
2023/05/21 02:22:16;;;;;;;3.83;2.50;;;15.80;99.70;;;;;;5082204;28;20032;-43
2023/05/21 02:24:42;;;;;;;2.67;2.47;;;15.70;99.70;;;;;;5069544;28;20051;-41
2023/05/21 02:27:09;;;;;;;3.00;2.72;;;15.80;99.80;;;;;;5067830;28;20032;-43
2023/05/21 02:29:35;;;;;;;4.55;3.20;;;15.80;99.80;;;;;;5082573;28;20028;-42
2023/05/21 02:32:03;;;;;;;4.20;2.75;;;15.70;99.90;;;;;;5083035;28;20787;-42
2023/05/21 02:34:33;;;;;;;2.63;2.42;;;15.80;99.90;;;;;;5080168;28;20035;-40
2023/05/21 02:37:00;;;;;;;3.67;2.40;;;15.80;99.90;;;;;;5064508;28;20029;-43
2023/05/21 02:39:26;;;;;;;3.40;2.78;;;15.80;99.90;;;;;;5082712;28;20103;-42
2023/05/21 02:41:51;;;;;;;2.88;2.58;;;15.80;99.90;;;;;;5083299;28;20526;-43
2023/05/21 02:44:22;;;;;;;2.90;2.53;;;15.80;99.90;;;;;;5082692;28;21915;-43
2023/05/21 02:46:48;;;;;;;4.13;3.33;;;15.70;99.90;;;;;;5062814;28;20036;-43
2023/05/21 02:49:14;;;;;;;3.30;2.90;;;15.70;99.90;;;;;;5076141;28;20183;-43
2023/05/21 02:51:39;;;;;;;2.83;2.55;;;15.70;99.90;;;;;;5081922;28;20498;-42
2023/05/21 02:54:05;;;;;;;2.90;2.60;;;15.70;99.90;;;;;;5082212;28;20035;-43
2023/05/21 02:56:30;;;;;;;2.90;2.42;;;15.70;99.90;;;;;;5081918;28;20074;-44
2023/05/21 02:58:56;;;;;;;2.90;2.70;;;15.70;99.90;;;;;;5083901;28;20371;-43
2023/05/21 03:01:21;;;;;;;3.22;2.53;;;15.60;99.90;;;;;;5083858;28;20054;-42
2023/05/21 03:03:50;;;;;;;3.00;2.70;;;15.60;99.90;;;;;;5082518;28;20020;-44
2023/05/21 03:06:15;;;;;;;2.72;2.53;;;15.50;99.90;;;;;;5083096;28;20040;-42
2023/05/21 03:08:41;;;;;;;3.85;3.13;;;15.50;99.90;;;;;;5083015;28;20031;-44
2023/05/21 03:11:06;;;;;;;3.40;3.00;;;15.50;99.90;;;;;;5082547;28;20020;-42
2023/05/21 03:13:35;;;;;;;3.20;2.90;;;15.50;99.90;;;;;;5082645;28;20484;-42
2023/05/21 03:16:00;;;;;;;4.13;3.25;;;15.40;99.90;;;;;;5082011;28;20483;-42
2023/05/21 03:18:26;;;;;;;3.30;2.95;;;15.40;99.90;;;;;;5082276;28;20573;-43
2023/05/21 03:20:51;;;;;;;3.50;2.95;;;15.50;99.90;;;;;;5075104;28;20016;-41
2023/05/21 03:23:17;;;;;;;3.55;2.90;;;15.50;99.90;;;;;;5082639;28;20653;-42
2023/05/21 03:25:42;;;;;;;3.20;2.70;;;15.50;99.90;;;;;;5081516;28;20040;-43
2023/05/21 03:28:08;;;;;;;2.67;2.40;;;15.50;99.90;;;;;;5082504;28;20034;-41
2023/05/21 03:30:35;;;;;;;4.05;2.90;;;15.50;99.90;;;;;;5076353;28;20837;-43
2023/05/21 03:33:05;;;;;;;3.08;2.72;;;15.50;99.90;;;;;;5080355;28;20027;-42
2023/05/21 03:35:30;;;;;;;3.50;2.78;;;15.50;99.90;;;;;;5082700;28;20032;-43
2023/05/21 03:37:56;;;;;;;4.03;2.90;;;15.50;99.90;;;;;;5083178;28;20034;-43
2023/05/21 03:40:21;;;;;;;4.25;3.03;;;15.50;99.90;;;;;;5083121;28;20073;-42
2023/05/21 03:42:47;;;;;;;3.58;3.28;;;15.50;99.90;;;;;;5082832;28;20059;-41
2023/05/21 03:45:15;;;;;;;3.08;2.80;;;15.50;99.90;;;;;;5082170;28;20097;-42
2023/05/21 03:47:41;;;;;;;4.30;2.72;;;15.50;99.90;;;;;;5082421;28;20027;-43
2023/05/21 03:50:09;;;;;;;3.67;2.92;;;15.50;99.90;;;;;;5083257;28;20012;-42
2023/05/21 03:52:35;;;;;;;3.80;2.92;;;15.50;99.90;;;;;;5077610;28;20879;-43
2023/05/21 03:55:00;;;;;;;3.65;3.20;;;15.50;99.90;;;;;;5064870;28;20052;-43
2023/05/21 03:57:26;;;;;;;4.18;2.92;;;15.50;99.90;;;;;;5081002;28;20020;-42
2023/05/21 03:59:52;;;;;;;3.85;3.10;;;15.50;99.90;;;;;;5080950;28;20521;-42
2023/05/21 04:02:17;;;;;;;3.15;2.85;;;15.50;99.90;;;;;;5081173;28;20119;-42
2023/05/21 04:04:44;;;;;;;3.70;2.80;;;15.50;99.90;;;;;;5061848;28;20036;-43
2023/05/21 04:07:13;;;;;;;4.47;3.78;;;15.60;99.90;;;;;;5079657;28;20047;-43
2023/05/21 04:09:39;;;;;;;6.97;3.53;;;15.60;99.90;;;;;;5082807;28;20020;-42
2023/05/21 04:12:06;;;;;;;4.47;3.17;;;15.50;99.90;;;;;;5083025;28;20028;-43
2023/05/21 04:14:32;;;;;;;3.13;2.88;;;15.50;99.90;;;;;;5080856;28;20024;-43
2023/05/21 04:17:03;;;;;;;3.65;3.30;;;15.50;99.90;;;;;;5082736;28;20506;-42
2023/05/21 04:19:29;;;;;;;3.92;3.20;;;15.50;99.90;;;;;;5081684;28;20037;-42
2023/05/21 04:21:54;;;;;;;3.50;3.20;;;15.50;99.90;;;;;;5081893;28;20024;-43
2023/05/21 04:24:21;;;;;;;4.95;3.70;;;15.50;99.90;;;;;;5082083;28;20570;-43
2023/05/21 04:26:53;;;;;;;3.67;3.10;;;15.50;99.90;;;;;;5077166;28;20127;-42
2023/05/21 04:29:20;;;;;;;3.85;3.08;;;15.60;99.90;;;;;;5082364;28;20103;-42
2023/05/21 04:31:46;;;;;;;3.97;3.30;;;15.50;99.90;;;;;;5081929;28;20063;-43
2023/05/21 04:34:12;;;;;;;3.50;3.10;;;15.50;99.90;;;;;;5081763;28;20029;-42
2023/05/21 04:36:38;;;;;;;3.03;2.78;;;15.50;99.90;;;;;;5081995;28;20028;-42
2023/05/21 04:39:05;;;;;;;3.35;3.05;;;15.50;99.90;;;;;;5081369;28;20020;-42
2023/05/21 04:41:30;;;;;;;3.25;2.95;;;15.50;99.90;;;;;;5080094;28;20077;-43
2023/05/21 04:43:59;;;;;;;3.10;2.80;;;15.50;99.90;;;;;;5078946;28;20016;-46
2023/05/21 04:46:25;;;;;;;3.35;3.05;;;15.50;99.90;;;;;;5081759;28;20162;-42
2023/05/21 04:48:54;;;;;;;3.33;3.00;;;15.50;99.90;;;;;;5081315;28;20028;-42
2023/05/21 04:51:23;;;;;;;3.28;2.80;;;15.50;99.90;;;;;;5076826;28;20027;-43
2023/05/21 04:53:49;;;;;;;4.00;3.47;;;15.60;99.90;;;;;;5082142;28;20123;-41
2023/05/21 04:56:17;;;;;;;3.50;3.20;;;15.50;99.90;;;;;;5082228;28;20529;-43
2023/05/21 04:58:43;;;;;;;3.65;3.35;;;15.50;99.90;;;;;;5085634;28;20073;-43
2023/05/21 05:01:08;;;;;;;4.80;3.83;;;15.50;99.90;;;;;;5086131;28;20136;-42
2023/05/21 05:03:34;;;;;;;4.40;3.78;;;15.50;99.90;;;;;;5078941;28;20056;-43
2023/05/21 05:06:03;;;;;;;4.70;3.95;;;15.50;99.90;;;;;;5083681;28;20119;-42
2023/05/21 05:08:28;;;;;;;3.50;3.20;;;15.60;99.90;;;;;;5083552;28;20107;-42
2023/05/21 05:10:54;;;;;;;5.18;3.40;;;15.60;99.90;;;;;;5083459;28;20558;-42
2023/05/21 05:13:20;;;;;;;3.60;3.10;;;15.60;99.90;;;;;;5084482;28;20020;-41
2023/05/21 05:15:45;;;;;;;4.00;3.45;;;15.60;99.90;;;;;;5076788;28;20028;-43
2023/05/21 05:18:11;;;;;;;4.63;3.42;;;15.60;99.90;;;;;;5079973;28;20378;-43
2023/05/21 05:20:37;;;;;;;4.07;3.67;;;15.60;99.90;;;;;;5084810;28;20081;-43
2023/05/21 05:23:02;;;;;;;4.05;3.65;;;15.60;99.90;;;;;;5085941;28;20020;-42
2023/05/21 05:25:28;;;;;;;3.97;3.55;;;15.60;99.90;;;;;;5082468;28;20579;-43
2023/05/21 05:27:53;;;;;;;3.40;3.03;;;15.60;99.90;;;;;;5084832;28;20020;-43
2023/05/21 05:30:19;;;;;;;4.90;3.53;;;15.60;99.90;;;;;;5084438;28;20738;-43
2023/05/21 05:32:45;;;;;;;4.05;3.63;;;15.70;99.90;;;;;;5078911;28;20060;-42
2023/05/21 05:35:11;;;;;;;3.72;3.38;;;15.70;99.90;;;;;;5080039;28;20036;-42
2023/05/21 05:37:43;;;;;;;5.65;4.28;;;15.70;99.90;;;;;;5069737;28;20383;-42
2023/05/21 05:40:08;;;;;;;6.35;3.70;;;15.70;99.90;;;;;;5082234;28;20023;-41
2023/05/21 05:42:34;;;;;;;5.70;3.60;;;15.70;99.90;;;;;;5083392;28;20024;-42
2023/05/21 05:44:59;;;;;;;4.60;3.67;;;15.70;99.90;;;;;;5084500;28;20534;-43
2023/05/21 05:47:25;;;;;;;4.45;3.80;;;15.80;99.90;;;;;;5083730;28;20491;-43
2023/05/21 05:49:51;;;;;;;4.30;3.25;;;15.80;99.90;;;;;;5084721;28;20073;-43
2023/05/21 05:52:16;;;;;;;4.20;3.67;;;15.80;99.90;;;;;;5083564;28;20066;-43
2023/05/21 05:54:42;;;;;;;5.43;4.13;;;15.90;99.90;;;;;;5084454;28;20547;-43
2023/05/21 05:57:07;;;;;;;4.30;3.72;;;15.80;99.90;;;;;;5084690;28;20046;-44
2023/05/21 05:59:33;;;;;;;4.07;3.67;;;15.80;99.90;;;;;;5084008;28;20036;-44
2023/05/21 06:01:59;;;;;;;4.03;3.45;;;15.90;99.90;;;;;;5084122;28;21740;-42
2023/05/21 06:04:28;;;;;;;4.32;3.50;;;15.90;99.90;;;;;;5083991;28;20039;-43
2023/05/21 06:06:56;;;;;;;3.38;3.08;;;15.90;99.90;;;;;;5084403;28;20063;-42
2023/05/21 06:09:24;;;;;;;3.50;2.83;;;15.90;99.90;;;;;;5083115;28;20427;-42
2023/05/21 06:11:50;;;;;;;4.40;3.80;;;15.90;99.90;;;;;;5080598;28;20022;-44
2023/05/21 06:14:16;;;;;;;4.00;3.67;;;15.90;99.90;;;;;;5077300;28;20028;-43
2023/05/21 06:16:41;;;;;;;4.20;3.50;;;15.90;99.90;;;;;;5082873;28;20123;-43
2023/05/21 06:19:07;;;;;;;5.18;4.03;;;15.90;99.90;;;;;;5083147;28;20167;-43
2023/05/21 06:21:33;;;;;;;4.63;3.67;;;16.00;99.90;;;;;;5082304;28;20028;-43
2023/05/21 06:23:58;;;;;;;5.22;4.20;;;16.00;99.90;;;;;;5068641;28;20035;-43
2023/05/21 06:26:24;;;;;;;5.38;3.85;;;16.00;99.90;;;;;;5083516;28;20050;-43
2023/05/21 06:28:50;;;;;;;4.65;3.80;;;16.10;99.90;;;;;;5082913;28;20027;-44
2023/05/21 06:31:21;;;;;;;4.97;3.70;;;16.10;99.90;;;;;;5084150;28;20020;-42
2023/05/21 06:33:48;;;;;;;4.00;3.60;;;16.20;99.90;;;;;;5083219;28;20028;-43
2023/05/21 06:36:14;;;;;;;4.63;3.20;;;16.30;99.90;;;;;;5076701;28;20043;-42
2023/05/21 06:38:39;;;;;;;4.20;3.42;;;16.30;99.90;;;;;;5083820;28;20024;-42
2023/05/21 06:41:05;;;;;;;3.25;2.90;;;16.40;99.90;;;;;;5082877;28;20073;-41
2023/05/21 06:43:30;;;;;;;4.00;3.60;;;16.50;99.90;;;;;;5083510;28;20077;-42
2023/05/21 06:45:56;;;;;;;3.67;3.10;;;16.50;99.90;;;;;;5083491;28;20032;-43
2023/05/21 06:48:22;;;;;;;3.22;2.90;;;16.60;99.90;;;;;;5081976;28;20077;-42
2023/05/21 06:50:47;;;;;;;3.88;3.50;;;16.70;99.90;;;;;;5084757;28;20032;-42
2023/05/21 06:53:15;;;;;;;5.45;3.25;;;16.80;99.90;;;;;;5084977;28;20392;-44
2023/05/21 06:55:43;;;;;;;4.47;3.30;;;16.90;99.90;;;;;;5081694;28;20121;-44
2023/05/21 06:58:09;;;;;;;3.28;2.97;;;16.90;99.90;;;;;;5083589;28;20028;-44
2023/05/21 07:00:35;;;;;;;5.82;4.22;;;17.00;99.90;;;;;;5083312;28;20093;-41
2023/05/21 07:03:00;;;;;;;4.75;3.90;;;17.10;99.90;;;;;;5081158;28;20024;-41
2023/05/21 07:05:26;;;;;;;4.65;4.03;;;17.10;99.90;;;;;;5067141;28;20044;-42
2023/05/21 07:07:52;;;;;;;4.68;3.95;;;17.20;99.90;;;;;;5078025;28;20027;-43
2023/05/21 07:10:20;;;;;;;4.63;3.70;;;17.30;99.90;;;;;;5081960;28;20615;-43
2023/05/21 07:12:46;;;;;;;4.60;4.20;;;17.40;99.90;;;;;;5082715;28;20024;-43
2023/05/21 07:15:11;;;;;;;5.30;4.25;;;17.60;99.90;;;;;;5082959;28;20038;-42
2023/05/21 07:17:37;;;;;;;6.55;4.15;;;17.60;99.90;;;;;;5082077;28;20023;-42
2023/05/21 07:20:06;;;;;;;4.43;4.03;;;17.70;99.90;;;;;;5079526;28;20753;-43
2023/05/21 07:22:32;;;;;;;5.45;4.55;;;17.80;99.90;;;;;;5081350;28;20102;-43
2023/05/21 07:24:57;;;;;;;6.13;4.38;;;17.80;99.90;;;;;;5080223;28;20032;-44
2023/05/21 07:27:23;;;;;;;4.35;3.95;;;17.80;99.90;;;;;;5081456;28;20107;-43
2023/05/21 07:29:49;;;;;;;5.10;3.92;;;17.80;99.90;;;;;;5081799;28;20047;-43
2023/05/21 07:32:14;;;;;;;5.70;4.50;;;17.90;99.90;;;;;;5075186;28;20039;-42
2023/05/21 07:34:40;;;;;;;5.38;3.92;;;17.90;99.90;;;;;;5076731;28;20035;-42
2023/05/21 07:37:05;;;;;;;4.57;4.18;;;18.00;99.90;;;;;;5082112;28;20819;-43
2023/05/21 07:39:31;;;;;;;5.57;4.68;;;18.10;99.90;;;;;;5081853;28;20016;-42
2023/05/21 07:41:56;;;;;;;5.78;4.70;;;18.10;99.90;;;;;;5082652;28;20591;-43
2023/05/21 07:44:23;;;;;;;7.07;4.47;;;18.10;99.90;;;;;;5076005;28;20114;-43
2023/05/21 07:46:48;;;;;;;4.55;4.00;;;18.20;99.90;;;;;;5082762;28;20040;-43
2023/05/21 07:49:15;;;;;;;4.88;4.00;;;18.30;99.90;;;;;;5082566;28;20375;-43
2023/05/21 07:51:42;;;;;;;3.97;3.58;;;18.30;99.90;;;;;;5081665;28;20032;-42
2023/05/21 07:54:08;;;;;;;5.60;4.57;;;18.40;99.90;;;;;;5083252;28;20145;-42
2023/05/21 07:56:34;;;;;;;4.22;3.83;;;18.40;99.90;;;;;;5081104;28;20635;-44
2023/05/21 07:59:00;;;;;;;5.72;4.28;;;18.50;99.90;;;;;;5074956;28;20103;-43
2023/05/21 08:01:28;;;;;;;5.25;4.20;;;18.60;99.90;;;;;;5075357;28;20040;-42
2023/05/21 08:03:54;;;;;;;5.75;4.22;;;18.70;99.90;;;;;;5082821;28;20183;-43
2023/05/21 08:06:21;;;;;;;5.35;4.43;;;18.70;99.90;;;;;;5081366;28;20493;-43
2023/05/21 08:08:46;;;;;;;5.78;4.50;;;18.80;99.90;;;;;;5080441;28;20034;-42
2023/05/21 08:11:12;;;;;;;5.07;4.30;;;18.80;99.90;;;;;;5082385;28;20024;-43
2023/05/21 08:13:41;;;;;;;5.63;4.38;;;18.90;99.90;;;;;;5077861;28;20380;-43
2023/05/21 08:16:06;;;;;;;5.22;4.57;;;19.00;99.90;;;;;;5082616;28;20081;-43
2023/05/21 08:18:32;;;;;;;6.75;4.68;;;19.10;99.90;;;;;;5080121;28;20032;-43
2023/05/21 08:20:59;;;;;;;5.90;4.88;;;19.10;99.90;;;;;;5079158;28;20024;-44
2023/05/21 08:23:26;;;;;;;4.68;4.20;;;19.10;99.90;;;;;;5081773;28;20060;-43
2023/05/21 08:25:52;;;;;;;5.82;4.97;;;19.20;99.90;;;;;;5081598;28;20043;-43
2023/05/21 08:28:18;;;;;;;5.38;4.65;;;19.20;99.90;;;;;;5080707;28;20032;-43
2023/05/21 08:30:43;;;;;;;6.30;5.20;;;19.20;99.90;;;;;;5078260;28;20141;-43
2023/05/21 08:33:09;;;;;;;5.70;4.50;;;19.30;99.90;;;;;;5078571;28;20028;-43
2023/05/21 08:35:37;;;;;;;6.05;4.97;;;19.20;99.90;;;;;;5079045;28;20119;-43
2023/05/21 08:38:03;;;;;;;6.75;4.72;;;19.30;99.90;;;;;;5081009;28;20050;-43
2023/05/21 08:40:29;;;;;;;5.47;4.50;;;19.40;99.90;;;;;;5076631;28;20495;-43
2023/05/21 08:42:55;;;;;;;5.38;4.65;;;19.40;99.90;;;;;;5079202;28;20077;-43
2023/05/21 08:45:25;;;;;;;6.47;5.07;;;19.50;99.90;;;;;;5079937;28;20043;-42
2023/05/21 08:47:58;;;;;;;5.47;4.97;;;19.60;99.90;;;;;;5078584;28;20032;-43
2023/05/21 08:50:25;;;;;;;;;;;19.60;99.90;;;;;;5079869;28;20126;-43
2023/05/21 08:52:51;;;;;;;6.88;4.93;;;19.70;99.90;;;;;;5081318;28;19914;-44
2023/05/21 08:55:17;;;;;;;4.95;4.45;;;19.70;99.90;;;;;;5079880;28;20060;-45
2023/05/21 08:57:43;;;;;;;5.68;5.07;;;19.60;99.90;;;;;;5079344;28;20060;-44
2023/05/21 09:00:12;;;;;;;6.57;5.25;;;19.70;99.90;;;;;;5080567;28;20118;-34
2023/05/21 09:02:43;;;;;;;6.15;5.38;;;19.70;99.90;;;;;;5068525;28;20024;-34
2023/05/21 09:05:09;;;;;;;5.78;5.18;;;19.80;99.90;;;;;;5080514;28;20104;-37
2023/05/21 09:08:02;;;;;;;6.18;5.35;;;19.80;99.90;;;;;;5080029;28;20028;-35
2023/05/21 09:10:37;;;;;;;5.22;4.70;;;19.90;99.90;;;;;;5081293;28;20066;-34
2023/05/21 09:13:03;;;;;;;6.03;5.22;;;20.00;99.90;;;;;;5079088;28;20027;-35
2023/05/21 09:15:29;;;;;;;5.40;4.90;;;20.00;99.90;;;;;;5080607;28;20035;-34
2023/05/21 09:17:56;;;;;;;5.20;4.70;;;20.00;99.90;;;;;;5071678;28;20078;-34
2023/05/21 09:20:26;;;;;;;4.85;4.32;;;20.10;99.90;;;;;;5081185;28;20059;-35
2023/05/21 09:22:52;;;;;;;5.95;5.35;;;20.20;99.90;;;;;;5080212;28;20027;-33
2023/05/21 09:25:23;;;;;;;6.22;5.10;;;20.20;99.90;;;;;;5081072;28;20032;-33
2023/05/21 09:27:49;;;;;;;8.57;5.75;;;20.20;99.90;;;;;;5070915;28;20074;-32
2023/05/21 09:30:18;;;;;;;6.38;5.45;;;20.20;99.90;;;;;;5079967;28;20093;-33
2023/05/21 09:32:45;;;;;;;6.75;5.55;;;20.30;99.90;;;;;;5081321;28;20036;-34
2023/05/21 09:35:14;;;;;;;7.78;5.38;;;20.40;99.90;;;;;;5077040;28;20027;-34
2023/05/21 09:37:42;;;;;;;8.15;5.53;;;20.50;99.90;;;;;;5077453;28;20127;-35
2023/05/21 09:40:16;;;;;;;5.90;5.30;;;20.50;99.90;;;;;;5066453;28;20020;-33
2023/05/21 09:42:51;;;;;;;8.00;5.85;;;20.60;99.90;;;;;;5082805;28;20032;-34
2023/05/21 09:45:24;;;;;;;6.43;5.75;;;20.60;99.90;;;;;;5083971;28;20024;-34
2023/05/21 09:47:52;;;;;;;5.28;4.78;;;20.70;99.90;;;;;;5084829;28;20539;-34
2023/05/21 09:50:22;;;;;;;7.78;6.07;;;20.80;99.90;;;;;;5085200;28;20475;-34
2023/05/21 09:52:51;;;;;;;6.28;5.68;;;20.90;99.90;;;;;;5084694;28;20024;-33
2023/05/21 09:55:20;;;;;;;8.38;6.75;;;20.90;99.90;;;;;;5083805;28;20052;-34
2023/05/21 09:57:47;;;;;;;7.47;6.38;;;21.00;99.90;;;;;;5084426;28;20089;-34
2023/05/21 10:00:23;;;;;;;7.70;6.90;;;21.10;99.90;;;;;;5084903;28;20467;-34
2023/05/21 10:02:56;;;;;;;7.47;6.75;;;21.10;99.90;;;;;;5085406;28;20448;-35
2023/05/21 10:05:29;;;;;;;9.73;7.00;;;21.10;99.90;;;;;;5084376;28;20041;-33
2023/05/21 10:08:00;;;;;;;8.63;6.97;;;21.10;99.90;;;;;;5084541;28;20028;-34
2023/05/21 10:10:28;;;;;;;7.15;6.45;;;21.10;99.90;;;;;;5083682;28;20028;-35
2023/05/21 10:13:03;;;;;;;6.72;6.13;;;21.10;99.90;;;;;;5082841;28;20123;-34
2023/05/21 10:15:34;;;;;;;7.93;6.47;;;21.20;99.90;;;;;;5072719;28;20052;-36
2023/05/21 10:18:00;;;;;;;8.27;7.28;;;21.20;99.90;;;;;;5083318;28;20359;-35
2023/05/21 10:20:26;;;;;;;10.70;7.88;;;21.30;99.90;;;;;;5082962;28;20063;-33
2023/05/21 10:22:52;;;;;;;9.05;7.25;;;21.30;99.90;;;;;;5084282;28;20693;-33
2023/05/21 10:25:18;;;;;;;8.00;6.75;;;21.30;99.90;;;;;;5082616;28;20475;-34
2023/05/21 10:27:44;;;;;;;9.23;7.78;;;21.30;99.90;;;;;;5083582;28;20024;-35
2023/05/21 10:30:10;;;;;;;8.70;7.80;;;21.30;99.90;;;;;;5084245;28;20044;-33
2023/05/21 10:32:39;;;;;;;9.32;7.95;;;21.30;99.90;;;;;;5083898;28;20884;-35
2023/05/21 10:35:06;;;;;;;8.23;7.43;;;21.40;99.90;;;;;;5084731;28;20024;-33
2023/05/21 10:37:32;;;;;;;9.48;8.02;;;21.40;99.90;;;;;;5083316;28;20028;-33
2023/05/21 10:39:57;;;;;;;8.52;7.43;;;21.30;99.90;;;;;;5083872;28;20012;-35
2023/05/21 10:42:56;;;;;;;8.55;7.72;;;21.30;99.90;;;;;;5083681;28;20486;-35
2023/05/21 10:45:45;;;;;;;8.98;8.07;;;21.30;99.90;;;;;;5083823;28;20036;-34
2023/05/21 10:48:41;;;;;;;9.18;7.25;;;21.30;99.90;;;;;;5083897;28;20032;-38
2023/05/21 10:51:15;;;;;;;9.52;8.52;;;21.30;99.90;;;;;;5084267;28;20032;-34
2023/05/21 10:53:47;;;;;;;8.80;7.90;;;21.30;99.90;;;;;;5082290;28;20111;-35
2023/05/21 10:56:29;;;;;;;8.27;7.40;;;21.30;99.90;;;;;;5083620;28;20031;-33
2023/05/21 10:59:08;;;;;;;;;;;21.40;99.90;;;;;;5083574;28;20036;-35
2023/05/21 11:01:36;;;;;;;8.63;7.38;;;21.30;99.90;;;;;;5079441;28;20000;-34
2023/05/21 11:04:05;;;;;;;8.18;7.30;;;21.40;99.90;;;;;;5083964;28;20038;-36
2023/05/21 11:06:31;;;;;;;8.27;7.47;;;21.40;99.90;;;;;;5083185;28;20028;-35
2023/05/21 11:09:00;;;;;;;7.85;6.90;;;21.50;99.90;;;;;;5082865;28;20124;-34
2023/05/21 11:11:43;;;;;;;9.07;7.45;;;21.60;99.90;;;;;;5082795;28;20035;-33
2023/05/21 11:14:31;;;;;;;10.50;8.18;;;21.60;99.90;;;;;;5083609;28;20499;-34
2023/05/21 11:16:58;;;;;;;8.45;7.55;;;21.60;99.90;;;;;;5082885;28;20023;-32
2023/05/21 11:19:46;;;;;;;8.75;7.85;;;21.50;99.90;;;;;;5081545;28;20081;-35
2023/05/21 11:22:23;;;;;;;8.40;7.47;;;21.60;99.90;;;;;;5077857;28;20999;-34
2023/05/21 11:24:49;;;;;;;9.98;8.48;;;21.60;99.90;;;;;;5082451;28;20044;-33
2023/05/21 11:27:35;;;;;;;12.80;8.23;;;21.60;99.70;;;;;;5082424;28;20206;-34
2023/05/21 11:30:18;;;;;;;9.13;7.43;;;21.60;99.80;;;;;;5082336;28;20508;-34
2023/05/21 11:33:14;;;;;;;9.65;7.70;;;21.70;99.90;;;;;;5080399;28;20621;-36
2023/05/21 11:35:58;;;;;;;8.70;6.43;;;21.70;99.80;;;;;;5082871;28;20118;-34
2023/05/21 11:38:28;;;;;;;9.50;8.07;;;21.70;99.80;;;;;;5073853;28;20016;-34
2023/05/21 11:40:54;;;;;;;8.68;7.20;;;21.80;99.70;;;;;;5082865;28;20024;-36
2023/05/21 11:43:19;;;;;;;8.10;7.00;;;21.80;99.70;;;;;;5082325;28;20027;-33
2023/05/21 11:45:46;;;;;;;8.98;8.07;;;21.90;99.70;;;;;;5082364;28;20065;-33
2023/05/21 11:48:15;;;;;;;9.73;8.30;;;21.90;99.70;;;;;;5083337;28;20027;-33
2023/05/21 11:50:43;;;;;;;8.80;7.80;;;21.90;99.60;;;;;;5081532;28;20109;-34
2023/05/21 11:53:11;;;;;;;9.20;7.65;;;22.00;99.60;;;;;;5083071;28;20422;-34
2023/05/21 11:55:42;;;;;;;9.15;7.68;;;22.00;99.50;;;;;;5082394;28;20044;-33
2023/05/21 11:58:12;;;;;;;7.68;6.88;;;22.00;99.60;;;;;;5081830;28;20027;-33
2023/05/21 12:00:41;;;;;;;9.52;7.40;;;22.10;99.60;;;;;;5082652;28;20491;-35
2023/05/21 12:03:11;;;;;;;7.95;7.15;;;22.10;99.50;;;;;;5082286;28;20039;-33
2023/05/21 12:05:50;;;;;;;9.02;6.55;;;22.20;99.50;;;;;;5081968;28;20043;-34
2023/05/21 12:08:27;;;;;;;7.07;6.32;;;22.30;99.40;;;;;;5083078;28;20055;-34
2023/05/21 12:10:58;;;;;;;8.75;6.03;;;22.30;99.40;;;;;;5083067;28;20016;-34
2023/05/21 12:13:24;;;;;;;9.05;7.60;;;22.40;99.30;;;;;;5082270;28;20192;-33
2023/05/21 12:15:52;;;;;;;10.15;8.45;;;22.40;99.20;;;;;;5083325;28;20020;-35
2023/05/21 12:18:21;;;;;;;8.13;7.32;;;22.40;99.10;;;;;;5081326;28;20020;-34
2023/05/21 12:20:46;;;;;;;8.70;6.95;;;22.50;99.30;;;;;;5082007;28;20599;-34
2023/05/21 12:23:25;;;;;;;8.52;7.40;;;22.50;99.00;;;;;;5082487;28;20035;-33
2023/05/21 12:25:52;;;;;;;7.53;6.78;;;22.60;99.10;;;;;;5081376;28;20035;-35
2023/05/21 12:28:19;;;;;;;6.95;6.25;;;22.60;99.00;;;;;;5080541;28;20024;-35
2023/05/21 12:30:45;;;;;;;6.55;5.95;;;22.60;99.00;;;;;;5080578;28;20072;-34
2023/05/21 12:33:10;;;;;;;8.95;7.28;;;22.60;99.10;;;;;;5076810;28;20028;-33
2023/05/21 12:35:36;;;;;;;7.32;6.60;;;22.70;99.00;;;;;;5077967;28;20024;-33
2023/05/21 12:38:05;;;;;;;7.45;6.75;;;22.70;98.80;;;;;;5079897;28;20028;-34
2023/05/21 12:40:37;;;;;;;8.57;7.07;;;22.80;98.80;;;;;;5080098;28;20024;-35
2023/05/21 12:43:03;;;;;;;7.32;6.63;;;22.90;98.70;;;;;;5080138;28;20039;-32
2023/05/21 12:45:31;;;;;;;8.15;7.35;;;22.90;98.70;;;;;;5080782;28;20032;-34
2023/05/21 12:48:00;;;;;;;7.93;6.63;;;22.90;98.40;;;;;;5080141;28;20487;-32
2023/05/21 12:50:26;;;;;;;7.75;6.70;;;23.00;98.50;;;;;;5079972;28;20816;-33
2023/05/21 12:52:57;;;;;;;10.75;7.68;;;23.00;98.40;;;;;;5081276;28;20097;-34